Time;durP1;ratioP1;P1;durP2;ratioP2;P2;SDS_P1;SDS_P2;PMS_P1;PMS_P2;Temp;Humidity;BMP_temperature;BMP_pressure;BME280_temperature;BME280_humidity;BME280_pressure;Samples;Min_cycle;Max_cycle;Signal;HPM_P1;HPM_P2
2022/09/28 00:01:48;;;;;;;3.38;1.50;;;;;;;;;;5040056;28;20032;-75
2022/09/28 00:04:13;;;;;;;2.28;1.67;;;;;;;;;;5037181;28;20029;-76
2022/09/28 00:06:39;;;;;;;2.35;1.20;;;;;;;;;;5042419;28;20085;-75
2022/09/28 00:09:04;;;;;;;1.35;1.10;;;;;;;;;;5027613;28;20025;-75
2022/09/28 00:11:30;;;;;;;3.22;1.42;;;;;;;;;;5044247;28;20033;-73
2022/09/28 00:14:01;;;;;;;1.92;1.40;;;;;;;;;;5022325;28;20026;-74
2022/09/28 00:16:30;;;;;;;3.30;1.40;;;;;;;;;;5042505;28;20028;-76
2022/09/28 00:18:56;;;;;;;2.03;1.30;;;;;;;;;;5040980;28;20030;-74
2022/09/28 00:21:24;;;;;;;2.17;1.20;;;;;;;;;;5041867;28;20029;-75
2022/09/28 00:26:39;;;;;;;2.95;1.00;;;;;;;;;;5038729;28;20066;-75
2022/09/28 00:29:11;;;;;;;1.10;1.00;;;;;;;;;;5037505;28;20056;-75
2022/09/28 00:31:37;;;;;;;4.72;0.98;;;;;;;;;;5026750;28;20087;-74
2022/09/28 00:34:04;;;;;;;1.23;1.10;;;;;;;;;;5020519;28;20069;-74
2022/09/28 00:36:31;;;;;;;2.13;1.13;;;;;;;;;;5036732;28;20056;-74
2022/09/28 00:38:58;;;;;;;1.20;0.90;;;;;;;;;;5036775;28;20794;-75
2022/09/28 00:41:26;;;;;;;1.10;1.00;;;;;;;;;;5043605;28;20116;-74
2022/09/28 00:43:53;;;;;;;1.80;1.05;;;;;;;;;;5017274;28;20623;-76
2022/09/28 00:46:33;;;;;;;1.50;0.82;;;;;;;;;;5038753;28;20477;-75
2022/09/28 00:49:04;;;;;;;1.85;1.58;;;;;;;;;;5039568;28;20051;-76
2022/09/28 00:51:30;;;;;;;1.23;0.98;;;;;;;;;;5040381;28;20056;-74
2022/09/28 00:53:57;;;;;;;0.95;0.80;;;;;;;;;;5027165;28;20532;-74
2022/09/28 00:56:26;;;;;;;0.88;0.85;;;;;;;;;;5040698;28;20025;-74
2022/09/28 00:58:53;;;;;;;3.42;0.90;;;;;;;;;;5038352;28;20636;-75
2022/09/28 01:01:19;;;;;;;1.02;0.80;;;;;;;;;;5020549;28;20048;-75
2022/09/28 01:03:47;;;;;;;1.17;0.82;;;;;;;;;;5021136;28;20045;-75
2022/09/28 01:06:19;;;;;;;1.77;0.82;;;;;;;;;;5033973;28;20029;-75
2022/09/28 01:08:46;;;;;;;;;;;;;;;;;;5027637;28;20036;-74
2022/09/28 01:11:12;;;;;;;1.77;1.00;;;;;;;;;;5033506;28;19921;-74
2022/09/28 01:13:39;;;;;;;3.03;0.98;;;;;;;;;;5039225;28;20029;-75
2022/09/28 01:16:26;;;;;;;0.82;0.80;;;;;;;;;;5042218;28;20100;-74
2022/09/28 01:19:25;;;;;;;2.10;0.90;;;;;;;;;;5044988;28;20034;-74
2022/09/28 01:22:11;;;;;;;1.10;1.00;;;;;;;;;;5038442;28;20033;-75
2022/09/28 01:24:44;;;;;;;1.42;0.90;;;;;;;;;;5037631;28;20172;-74
2022/09/28 01:27:18;;;;;;;4.43;1.08;;;;;;;;;;5042789;28;20033;-75
2022/09/28 01:30:04;;;;;;;1.00;0.80;;;;;;;;;;5040229;28;20037;-74
2022/09/28 01:32:54;;;;;;;1.05;0.90;;;;;;;;;;5039104;28;20047;-74
2022/09/28 01:35:34;;;;;;;1.42;0.80;;;;;;;;;;5044319;28;20147;-74
2022/09/28 01:38:13;;;;;;;3.65;0.93;;;;;;;;;;5033074;28;20033;-75
2022/09/28 01:40:40;;;;;;;1.80;0.80;;;;;;;;;;5037298;28;20143;-74
2022/09/28 01:43:27;;;;;;;2.67;1.00;;;;;;;;;;5039559;28;20021;-74
2022/09/28 01:45:52;;;;;;;1.00;0.88;;;;;;;;;;5038554;28;20029;-74
2022/09/28 01:48:52;;;;;;;2.53;1.15;;;;;;;;;;5031961;28;20405;-75
2022/09/28 01:51:32;;;;;;;2.67;1.13;;;;;;;;;;5025088;28;20048;-76
2022/09/28 01:54:05;;;;;;;1.75;1.00;;;;;;;;;;5043946;28;20029;-74
2022/09/28 01:56:42;;;;;;;0.95;0.90;;;;;;;;;;5040531;28;20033;-73
2022/09/28 01:59:16;;;;;;;1.45;1.35;;;;;;;;;;5039640;28;20033;-75
2022/09/28 02:01:47;;;;;;;3.65;1.10;;;;;;;;;;5022761;28;20029;-74
2022/09/28 02:04:21;;;;;;;0.95;0.95;;;;;;;;;;5037675;28;20029;-74
2022/09/28 02:06:55;;;;;;;0.90;0.90;;;;;;;;;;5041001;28;20040;-73
2022/09/28 02:09:36;;;;;;;2.15;1.20;;;;;;;;;;5034934;28;20017;-74
2022/09/28 02:12:12;;;;;;;2.83;1.05;;;;;;;;;;5043096;28;20033;-75
2022/09/28 02:14:39;;;;;;;1.85;1.10;;;;;;;;;;5038683;28;20031;-75
2022/09/28 02:17:06;;;;;;;3.42;1.10;;;;;;;;;;5038639;28;20024;-74
2022/09/28 02:19:32;;;;;;;3.83;1.02;;;;;;;;;;5039263;28;20061;-74
2022/09/28 02:22:23;;;;;;;2.22;1.60;;;;;;;;;;5038296;28;20059;-74
2022/09/28 02:24:58;;;;;;;1.55;1.20;;;;;;;;;;5028629;28;20038;-74
2022/09/28 02:27:26;;;;;;;1.45;1.00;;;;;;;;;;5041483;28;20516;-75
2022/09/28 02:29:52;;;;;;;1.38;1.23;;;;;;;;;;5042651;28;20042;-75
2022/09/28 02:32:19;;;;;;;2.65;1.10;;;;;;;;;;5035049;28;20029;-76
2022/09/28 02:34:44;;;;;;;0.93;0.88;;;;;;;;;;5037432;28;20018;-74
2022/09/28 02:37:11;;;;;;;2.88;1.55;;;;;;;;;;5041532;28;20645;-76
2022/09/28 02:39:37;;;;;;;2.58;1.27;;;;;;;;;;5020055;28;20049;-74
2022/09/28 02:42:18;;;;;;;1.90;1.15;;;;;;;;;;5040368;28;20028;-74
2022/09/28 02:45:11;;;;;;;2.15;1.10;;;;;;;;;;5040113;28;20695;-75
2022/09/28 02:47:49;;;;;;;1.92;1.10;;;;;;;;;;5036279;28;20037;-74
2022/09/28 02:50:33;;;;;;;2.42;1.17;;;;;;;;;;5037096;28;20060;-74
2022/09/28 02:53:18;;;;;;;2.05;1.30;;;;;;;;;;5037083;28;20029;-75
2022/09/28 02:55:59;;;;;;;2.88;1.08;;;;;;;;;;5025400;28;20129;-74
2022/09/28 02:58:36;;;;;;;1.83;1.10;;;;;;;;;;5038953;28;20033;-76
2022/09/28 03:01:28;;;;;;;4.60;1.30;;;;;;;;;;5041500;28;20079;-73
2022/09/28 03:04:31;;;;;;;4.22;1.17;;;;;;;;;;5040516;28;20029;-74
2022/09/28 03:07:19;;;;;;;2.55;1.15;;;;;;;;;;5013107;28;20033;-74
2022/09/28 03:10:10;;;;;;;1.97;1.20;;;;;;;;;;5042499;28;20978;-75
2022/09/28 03:12:37;;;;;;;1.53;1.43;;;;;;;;;;5037275;28;20041;-75
2022/09/28 03:15:25;;;;;;;2.53;1.13;;;;;;;;;;5039628;28;20047;-78
2022/09/28 03:17:51;;;;;;;2.33;1.20;;;;;;;;;;5035262;28;20695;-77
2022/09/28 03:20:17;;;;;;;3.13;1.33;;;;;;;;;;5039172;28;20025;-78
2022/09/28 03:22:43;;;;;;;4.17;1.70;;;;;;;;;;5035097;28;20563;-77
2022/09/28 03:25:09;;;;;;;4.20;1.43;;;;;;;;;;5021347;28;20028;-78
2022/09/28 03:27:34;;;;;;;3.87;1.57;;;;;;;;;;5035143;28;20381;-78
2022/09/28 03:30:00;;;;;;;1.70;1.27;;;;;;;;;;5041051;28;20537;-77
2022/09/28 03:32:25;;;;;;;1.40;1.17;;;;;;;;;;5040605;28;20424;-78
2022/09/28 03:34:51;;;;;;;1.70;1.40;;;;;;;;;;5034850;28;20037;-76
2022/09/28 03:37:16;;;;;;;1.90;1.47;;;;;;;;;;5042038;28;20029;-77
2022/09/28 03:39:42;;;;;;;2.13;1.50;;;;;;;;;;5036419;28;20479;-76
2022/09/28 03:42:07;;;;;;;4.15;1.70;;;;;;;;;;5045821;28;20815;-78
2022/09/28 03:44:33;;;;;;;3.53;1.93;;;;;;;;;;5038102;28;20072;-79
2022/09/28 03:46:58;;;;;;;3.43;2.00;;;;;;;;;;5038414;28;20033;-76
2022/09/28 03:49:24;;;;;;;7.87;2.40;;;;;;;;;;5043894;28;20052;-77
2022/09/28 03:51:51;;;;;;;3.00;1.90;;;;;;;;;;5038652;28;20029;-79
2022/09/28 03:54:16;;;;;;;2.40;1.40;;;;;;;;;;5045519;28;20104;-79
2022/09/28 03:56:42;;;;;;;4.27;1.93;;;;;;;;;;5040001;28;20774;-79
2022/09/28 03:59:07;;;;;;;5.50;1.80;;;;;;;;;;5021763;28;20025;-79
2022/09/28 04:01:32;;;;;;;2.23;1.70;;;;;;;;;;5045099;28;20052;-78
2022/09/28 04:03:58;;;;;;;1.93;1.80;;;;;;;;;;5043218;28;20029;-79
2022/09/28 04:06:24;;;;;;;2.60;1.87;;;;;;;;;;5040576;28;20069;-78
2022/09/28 04:08:50;;;;;;;2.73;2.00;;;;;;;;;;5042322;28;20085;-78
2022/09/28 04:11:16;;;;;;;2.40;2.13;;;;;;;;;;5044762;28;20464;-77
2022/09/28 04:13:41;;;;;;;3.30;2.60;;;;;;;;;;5038939;28;20033;-78
2022/09/28 04:16:08;;;;;;;2.20;1.90;;;;;;;;;;5044388;28;20029;-78
2022/09/28 04:18:34;;;;;;;4.43;2.13;;;;;;;;;;5042037;28;20048;-79
2022/09/28 04:21:07;;;;;;;4.40;2.43;;;;;;;;;;5041123;28;20466;-78
2022/09/28 04:23:35;;;;;;;2.97;2.23;;;;;;;;;;5042923;28;20079;-78
2022/09/28 04:26:01;;;;;;;3.07;2.10;;;;;;;;;;5040032;28;20036;-78
2022/09/28 04:31:15;;;;;;;4.50;2.37;;;;;;;;;;5045149;28;20036;-77
2022/09/28 04:33:40;;;;;;;5.20;2.60;;;;;;;;;;5038515;28;20033;-79
2022/09/28 04:36:08;;;;;;;2.70;2.10;;;;;;;;;;5041807;28;20082;-78
2022/09/28 04:38:34;;;;;;;3.30;2.07;;;;;;;;;;5026956;28;20104;-77
2022/09/28 04:40:59;;;;;;;2.80;1.80;;;;;;;;;;5038631;28;20187;-78
2022/09/28 04:43:25;;;;;;;3.53;2.70;;;;;;;;;;5043996;28;20024;-77
2022/09/28 04:45:51;;;;;;;3.07;2.17;;;;;;;;;;5038852;28;20065;-76
2022/09/28 04:48:17;;;;;;;4.27;2.20;;;;;;;;;;5043247;28;20114;-75
2022/09/28 04:50:43;;;;;;;5.60;2.50;;;;;;;;;;5026055;28;20029;-75
2022/09/28 04:53:08;;;;;;;8.13;2.60;;;;;;;;;;5033071;28;20025;-75
2022/09/28 04:55:34;;;;;;;3.87;2.20;;;;;;;;;;5045273;28;20363;-75
2022/09/28 04:58:01;;;;;;;4.17;2.70;;;;;;;;;;5044561;28;20437;-76
2022/09/28 05:00:28;;;;;;;3.10;2.27;;;;;;;;;;5042219;28;20025;-76
2022/09/28 05:02:54;;;;;;;7.83;3.30;;;;;;;;;;5036689;28;20055;-75
2022/09/28 05:05:20;;;;;;;2.70;2.30;;;;;;;;;;5038017;28;20031;-75
2022/09/28 05:07:45;;;;;;;6.77;2.80;;;;;;;;;;5042619;28;20115;-76
2022/09/28 05:10:11;;;;;;;7.20;2.50;;;;;;;;;;5044054;28;20517;-76
2022/09/28 05:12:37;;;;;;;4.00;2.70;;;;;;;;;;5021819;28;20033;-74
2022/09/28 05:15:03;;;;;;;4.50;2.77;;;;;;;;;;5044986;28;20045;-76
2022/09/28 05:17:28;;;;;;;5.00;2.87;;;;;;;;;;5045705;28;20457;-75
2022/09/28 05:19:54;;;;;;;3.97;2.60;;;;;;;;;;5036863;28;20021;-76
2022/09/28 05:22:19;;;;;;;3.53;2.73;;;;;;;;;;5042979;28;20120;-75
2022/09/28 05:24:45;;;;;;;15.10;4.97;;;;;;;;;;5042867;28;20037;-77
2022/09/28 05:27:11;;;;;;;3.40;2.50;;;;;;;;;;5036906;28;20040;-75
2022/09/28 05:29:37;;;;;;;4.97;2.67;;;;;;;;;;5025780;28;20033;-76
2022/09/28 05:32:02;;;;;;;5.93;2.73;;;;;;;;;;5042887;28;20057;-75
2022/09/28 05:34:28;;;;;;;4.93;3.10;;;;;;;;;;5026060;28;20053;-75
2022/09/28 05:36:53;;;;;;;5.30;2.50;;;;;;;;;;5038002;28;20026;-75
2022/09/28 05:39:19;;;;;;;5.90;2.17;;;;;;;;;;5038832;28;20053;-76
2022/09/28 05:41:44;;;;;;;3.23;2.17;;;;;;;;;;5032930;28;20053;-76
2022/09/28 05:44:10;;;;;;;5.47;2.27;;;;;;;;;;5029796;28;20446;-76
2022/09/28 05:46:35;;;;;;;6.07;2.60;;;;;;;;;;5033982;28;20041;-76
2022/09/28 05:49:00;;;;;;;4.37;2.63;;;;;;;;;;5024213;28;20031;-76
2022/09/28 05:51:26;;;;;;;4.50;2.50;;;;;;;;;;5019883;28;20383;-77
2022/09/28 05:53:55;;;;;;;4.47;2.60;;;;;;;;;;5019416;28;20500;-76
2022/09/28 05:56:21;;;;;;;6.77;3.13;;;;;;;;;;5045609;28;20017;-76
2022/09/28 05:58:46;;;;;;;2.72;2.22;;;;;;;;;;5032682;28;20452;-77
2022/09/28 06:01:12;;;;;;;6.33;2.57;;;;;;;;;;5028878;28;20077;-75
2022/09/28 06:03:37;;;;;;;4.07;2.70;;;;;;;;;;5040305;28;20037;-76
2022/09/28 06:06:03;;;;;;;8.20;5.17;;;;;;;;;;5024363;28;20029;-76
2022/09/28 06:08:32;;;;;;;8.27;2.40;;;;;;;;;;5018418;28;20398;-75
2022/09/28 06:11:00;;;;;;;4.50;2.40;;;;;;;;;;5016609;28;20449;-76
2022/09/28 06:13:26;;;;;;;6.50;2.05;;;;;;;;;;5021115;28;20042;-77
2022/09/28 06:15:52;;;;;;;5.97;2.75;;;;;;;;;;5033435;28;20030;-75
2022/09/28 06:18:17;;;;;;;3.58;2.22;;;;;;;;;;5022513;28;20031;-77
2022/09/28 06:20:43;;;;;;;2.60;2.13;;;;;;;;;;5032433;28;20739;-76
2022/09/28 06:23:09;;;;;;;3.60;2.00;;;;;;;;;;5037002;28;20099;-76
2022/09/28 06:25:35;;;;;;;2.25;1.80;;;;;;;;;;5017819;28;20037;-77
2022/09/28 06:28:03;;;;;;;3.75;2.10;;;;;;;;;;5020614;28;20030;-80
2022/09/28 06:30:31;;;;;;;2.83;2.20;;;;;;;;;;5032288;28;20041;-77
2022/09/28 06:32:58;;;;;;;3.17;2.30;;;;;;;;;;5037593;28;20409;-77
2022/09/28 06:35:26;;;;;;;2.03;1.80;;;;;;;;;;5017910;28;20033;-77
2022/09/28 06:37:52;;;;;;;2.80;2.00;;;;;;;;;;5017341;28;20026;-80
2022/09/28 06:40:18;;;;;;;2.90;1.92;;;;;;;;;;5027975;28;20038;-78
2022/09/28 06:42:53;;;;;;;4.88;2.97;;;;;;;;;;5017193;28;20429;-77
2022/09/28 06:45:24;;;;;;;7.95;3.83;;;;;;;;;;5027629;28;20022;-79
2022/09/28 06:47:57;;;;;;;2.10;1.90;;;;;;;;;;5024923;28;20055;-79
2022/09/28 06:50:29;;;;;;;2.92;2.28;;;;;;;;;;5026925;28;20922;-79
2022/09/28 06:52:55;;;;;;;4.80;1.95;;;;;;;;;;5025699;28;20033;-79
2022/09/28 06:55:21;;;;;;;3.40;2.17;;;;;;;;;;5034017;28;20088;-80
2022/09/28 06:57:59;;;;;;;4.00;2.00;;;;;;;;;;5035553;28;20029;-79
2022/09/28 07:00:30;;;;;;;6.00;2.08;;;;;;;;;;5016905;28;20037;-77
2022/09/28 07:02:56;;;;;;;2.70;1.65;;;;;;;;;;5031265;28;20112;-79
2022/09/28 07:05:25;;;;;;;3.63;2.10;;;;;;;;;;5035465;28;20676;-79
2022/09/28 07:07:55;;;;;;;4.22;2.35;;;;;;;;;;5028030;28;20053;-79
2022/09/28 07:10:27;;;;;;;5.45;2.53;;;;;;;;;;5022996;28;20093;-78
2022/09/28 07:12:53;;;;;;;6.22;2.30;;;;;;;;;;5015461;28;20125;-79
2022/09/28 07:15:20;;;;;;;4.75;2.00;;;;;;;;;;5022278;28;20112;-79
2022/09/28 07:17:47;;;;;;;3.15;2.13;;;;;;;;;;5022578;28;20083;-79
2022/09/28 07:20:13;;;;;;;3.28;2.50;;;;;;;;;;5017016;28;20057;-79
2022/09/28 07:22:39;;;;;;;3.47;2.20;;;;;;;;;;5019510;28;20068;-79
2022/09/28 07:25:09;;;;;;;5.32;2.63;;;;;;;;;;5016877;28;20076;-79
2022/09/28 07:27:37;;;;;;;3.25;1.92;;;;;;;;;;5014670;28;20103;-80
2022/09/28 07:30:06;;;;;;;5.47;2.63;;;;;;;;;;5037217;28;20067;-80
2022/09/28 07:32:35;;;;;;;3.72;2.35;;;;;;;;;;5015337;28;20038;-80
2022/09/28 07:35:07;;;;;;;5.88;2.33;;;;;;;;;;5021747;28;20104;-80
2022/09/28 07:37:34;;;;;;;4.28;2.08;;;;;;;;;;5031867;28;20030;-80
2022/09/28 07:42:46;;;;;;;3.55;2.10;;;;;;;;;;5039967;28;20121;-79
2022/09/28 07:45:12;;;;;;;5.00;2.80;;;;;;;;;;5036965;28;20116;-79
2022/09/28 07:47:37;;;;;;;3.38;2.13;;;;;;;;;;5021566;28;20100;-79
2022/09/28 07:50:04;;;;;;;6.28;3.42;;;;;;;;;;5039785;28;20533;-80
2022/09/28 07:52:30;;;;;;;4.35;2.22;;;;;;;;;;5020245;28;20030;-78
2022/09/28 07:54:56;;;;;;;8.95;2.45;;;;;;;;;;5041102;28;20104;-78
2022/09/28 07:57:22;;;;;;;3.58;2.50;;;;;;;;;;5038115;28;20025;-80
2022/09/28 07:59:48;;;;;;;4.35;2.20;;;;;;;;;;5037433;28;20025;-81
2022/09/28 08:02:16;;;;;;;4.93;2.40;;;;;;;;;;5034860;28;20090;-80
2022/09/28 08:04:42;;;;;;;4.45;2.65;;;;;;;;;;5037215;28;20026;-80
2022/09/28 08:07:12;;;;;;;2.13;1.85;;;;;;;;;;5038688;28;20031;-79
2022/09/28 08:09:37;;;;;;;3.22;1.75;;;;;;;;;;5027583;28;20107;-79
2022/09/28 08:12:03;;;;;;;5.50;2.22;;;;;;;;;;5041957;28;20420;-79
2022/09/28 08:14:33;;;;;;;3.95;2.63;;;;;;;;;;5037012;28;20059;-81
2022/09/28 08:17:00;;;;;;;3.85;2.10;;;;;;;;;;5036382;28;20049;-81
2022/09/28 08:21:43;;;;;;;3.17;1.80;;;;;;;;;;5037890;28;20174;-79
2022/09/28 08:22:11;;;;;;;3.20;2.40;;;;;;;;;;5035059;28;20624;-80
2022/09/28 08:24:36;;;;;;;4.47;2.00;;;;;;;;;;5041263;28;20035;-80
2022/09/28 08:27:02;;;;;;;3.30;1.98;;;;;;;;;;5038089;28;20030;-80
2022/09/28 08:29:30;;;;;;;2.72;1.90;;;;;;;;;;5043016;28;20102;-81
2022/09/28 08:31:58;;;;;;;3.50;2.05;;;;;;;;;;5038178;28;20045;-80
2022/09/28 08:34:26;;;;;;;6.82;1.85;;;;;;;;;;5037368;28;20041;-79
2022/09/28 08:36:51;;;;;;;4.88;2.10;;;;;;;;;;5039424;28;20037;-81
2022/09/28 08:39:17;;;;;;;3.55;2.20;;;;;;;;;;5045265;28;20062;-81
2022/09/28 08:42:03;;;;;;;4.55;2.20;;;;;;;;;;5037517;28;20041;-79
2022/09/28 08:44:40;;;;;;;4.53;2.35;;;;;;;;;;5031575;28;20109;-79
2022/09/28 08:48:42;;;;;;;3.97;2.08;;;;;;;;;;5042559;28;20035;-81
2022/09/28 08:50:01;;;;;;;6.53;3.40;;;;;;;;;;5032954;28;20044;-80
2022/09/28 08:52:32;;;;;;;6.60;2.17;;;;;;;;;;5044796;28;20025;-78
2022/09/28 08:55:01;;;;;;;2.25;1.92;;;;;;;;;;5038689;28;20087;-78
2022/09/28 08:57:32;;;;;;;4.35;2.10;;;;;;;;;;5041940;28;20033;-78
2022/09/28 09:00:00;;;;;;;4.75;2.15;;;;;;;;;;5039386;28;20484;-80
2022/09/28 09:02:38;;;;;;;3.95;2.08;;;;;;;;;;5032336;28;20048;-78
2022/09/28 09:05:06;;;;;;;8.82;2.85;;;;;;;;;;5033308;28;20147;-82
2022/09/28 09:07:41;;;;;;;4.72;2.85;;;;;;;;;;5044416;28;20043;-81
2022/09/28 09:10:28;;;;;;;6.60;2.42;;;;;;;;;;5037634;28;20037;-82
2022/09/28 09:13:11;;;;;;;4.95;2.42;;;;;;;;;;5038289;28;20033;-81
2022/09/28 09:15:37;;;;;;;6.03;3.10;;;;;;;;;;5039456;28;20370;-80
2022/09/28 09:18:28;;;;;;;5.70;3.08;;;;;;;;;;5040459;28;20025;-80
2022/09/28 09:20:58;;;;;;;4.32;3.10;;;;;;;;;;5042746;28;20034;-80
2022/09/28 09:23:39;;;;;;;4.88;2.60;;;;;;;;;;5043254;28;20021;-81
2022/09/28 09:26:17;;;;;;;6.15;2.80;;;;;;;;;;5038206;28;20088;-80
2022/09/28 09:29:01;;;;;;;6.43;3.17;;;;;;;;;;5043083;28;20106;-79
2022/09/28 09:31:48;;;;;;;6.22;3.15;;;;;;;;;;5043679;28;20053;-80
2022/09/28 09:34:39;;;;;;;8.07;3.15;;;;;;;;;;5039881;28;20026;-80
2022/09/28 09:37:47;;;;;;;4.63;3.08;;;;;;;;;;5036936;28;20033;-79
2022/09/28 09:40:46;;;;;;;4.22;3.10;;;;;;;;;;5030515;28;20041;-79
2022/09/28 09:43:27;;;;;;;5.03;3.60;;;;;;;;;;5039965;28;20029;-80
2022/09/28 09:46:36;;;;;;;5.07;4.15;;;;;;;;;;5042005;28;20068;-80
2022/09/28 09:49:13;;;;;;;4.15;2.90;;;;;;;;;;4983004;28;20088;-80
2022/09/28 09:51:50;;;;;;;5.55;3.38;;;;;;;;;;5034387;28;20060;-79
2022/09/28 09:54:37;;;;;;;5.18;2.92;;;;;;;;;;5048364;28;20029;-80
2022/09/28 09:57:16;;;;;;;6.00;4.43;;;;;;;;;;5039122;28;20036;-80
2022/09/28 09:59:43;;;;;;;5.72;3.50;;;;;;;;;;5039367;28;20036;-79
2022/09/28 10:02:23;;;;;;;5.30;2.90;;;;;;;;;;5041614;28;20179;-79
2022/09/28 10:04:53;;;;;;;7.18;3.83;;;;;;;;;;5043430;28;20717;-79
2022/09/28 10:08:00;;;;;;;5.70;3.60;;;;;;;;;;5042526;28;20039;-81
2022/09/28 10:10:30;;;;;;;5.63;3.28;;;;;;;;;;5034521;28;20620;-80
2022/09/28 10:12:55;;;;;;;7.72;2.85;;;;;;;;;;5041967;28;20029;-78
2022/09/28 10:15:25;;;;;;;5.20;2.60;;;;;;;;;;5043496;28;20108;-80
2022/09/28 10:17:55;;;;;;;9.90;3.85;;;;;;;;;;5035567;28;20462;-79
2022/09/28 10:20:21;;;;;;;6.18;3.42;;;;;;;;;;5042582;28;20025;-78
2022/09/28 10:22:49;;;;;;;5.47;2.90;;;;;;;;;;5044896;28;20459;-80
2022/09/28 10:25:16;;;;;;;5.47;3.00;;;;;;;;;;5045910;28;20037;-79
2022/09/28 10:27:51;;;;;;;7.93;5.40;;;;;;;;;;5045335;28;20033;-78
2022/09/28 10:30:22;;;;;;;5.38;3.50;;;;;;;;;;5040435;28;20107;-81
2022/09/28 10:32:57;;;;;;;5.85;3.63;;;;;;;;;;5039149;28;20131;-77
2022/09/28 10:35:26;;;;;;;7.22;3.67;;;;;;;;;;5041462;28;20036;-80
2022/09/28 10:38:00;;;;;;;6.97;4.68;;;;;;;;;;5039450;28;20090;-79
2022/09/28 10:40:32;;;;;;;6.57;3.38;;;;;;;;;;5035803;28;20770;-79
2022/09/28 10:43:14;;;;;;;7.22;3.85;;;;;;;;;;5042945;28;20028;-79
2022/09/28 10:45:40;;;;;;;9.98;3.70;;;;;;;;;;5036198;28;20037;-79
2022/09/28 10:48:16;;;;;;;6.80;4.18;;;;;;;;;;5036018;28;20033;-79
2022/09/28 10:50:42;;;;;;;7.70;4.10;;;;;;;;;;5038865;28;20041;-80
2022/09/28 10:53:18;;;;;;;10.60;3.83;;;;;;;;;;5036322;28;20032;-79
2022/09/28 10:55:56;;;;;;;4.75;3.30;;;;;;;;;;5038063;28;20044;-79
2022/09/28 10:58:29;;;;;;;6.10;3.47;;;;;;;;;;5036925;28;20458;-79
2022/09/28 11:01:02;;;;;;;8.90;3.60;;;;;;;;;;5028885;28;20025;-80
2022/09/28 11:03:28;;;;;;;7.10;3.30;;;;;;;;;;5040991;28;20025;-77
2022/09/28 11:05:58;;;;;;;5.00;3.00;;;;;;;;;;5041627;28;20033;-77
2022/09/28 11:08:27;;;;;;;6.10;3.45;;;;;;;;;;5035460;28;20033;-78
2022/09/28 11:11:14;;;;;;;8.05;3.50;;;;;;;;;;5040287;28;20044;-79
2022/09/28 11:13:46;;;;;;;6.25;3.10;;;;;;;;;;5040330;28;20422;-80
2022/09/28 11:16:33;;;;;;;3.55;2.95;;;;;;;;;;5035976;28;20036;-81
2022/09/28 11:19:20;;;;;;;7.28;3.80;;;;;;;;;;5042186;28;20046;-79
2022/09/28 11:21:45;;;;;;;6.82;4.15;;;;;;;;;;5036291;28;20079;-80
2022/09/28 11:24:14;;;;;;;5.32;2.70;;;;;;;;;;5036104;28;20036;-78
2022/09/28 11:26:45;;;;;;;8.68;3.17;;;;;;;;;;5038545;28;20033;-78
2022/09/28 11:29:29;;;;;;;4.85;2.78;;;;;;;;;;5041965;28;20462;-80
2022/09/28 11:32:00;;;;;;;7.80;2.63;;;;;;;;;;5040225;28;20034;-81
2022/09/28 11:34:51;;;;;;;4.53;2.25;;;;;;;;;;5039434;28;20033;-79
2022/09/28 11:37:30;;;;;;;2.92;2.30;;;;;;;;;;5017397;28;20033;-79
2022/09/28 11:40:23;;;;;;;2.40;2.05;;;;;;;;;;5011738;28;20055;-79
2022/09/28 11:43:07;;;;;;;4.97;2.70;;;;;;;;;;5022420;28;20021;-79
2022/09/28 11:45:45;;;;;;;4.32;2.20;;;;;;;;;;5035286;28;20044;-80
2022/09/28 11:48:15;;;;;;;8.85;2.90;;;;;;;;;;5029816;28;20029;-77
2022/09/28 11:51:02;;;;;;;10.85;3.75;;;;;;;;;;5035367;28;20366;-80
2022/09/28 11:53:51;;;;;;;4.97;1.92;;;;;;;;;;5035154;28;20509;-80
2022/09/28 11:56:26;;;;;;;5.78;2.40;;;;;;;;;;5036507;28;20036;-80
2022/09/28 11:58:56;;;;;;;6.00;2.05;;;;;;;;;;5040116;28;20048;-80
2022/09/28 12:01:30;;;;;;;3.65;2.35;;;;;;;;;;5038342;28;20090;-79
2022/09/28 12:04:08;;;;;;;3.35;2.13;;;;;;;;;;5045525;28;20077;-81
2022/09/28 12:06:44;;;;;;;4.22;2.33;;;;;;;;;;5038571;28;20045;-79
2022/09/28 12:09:31;;;;;;;4.78;3.05;;;;;;;;;;5045622;28;20024;-80
2022/09/28 12:12:01;;;;;;;6.80;3.00;;;;;;;;;;5043397;28;20051;-79
2022/09/28 12:14:34;;;;;;;3.30;2.10;;;;;;;;;;5042358;28;20022;-80
2022/09/28 12:17:06;;;;;;;5.47;3.83;;;;;;;;;;5042686;28;20043;-80
2022/09/28 12:19:57;;;;;;;3.67;2.65;;;;;;;;;;5039822;28;20030;-79
2022/09/28 12:22:30;;;;;;;4.13;1.88;;;;;;;;;;5044980;28;20033;-79
2022/09/28 12:24:57;;;;;;;1.92;1.10;;;;;;;;;;5044977;28;20025;-80
2022/09/28 12:28:05;;;;;;;0.60;0.60;;;;;;;;;;5041684;28;20027;-81
2022/09/28 12:30:36;;;;;;;0.98;0.95;;;;;;;;;;5043118;28;20107;-81
2022/09/28 12:33:05;;;;;;;1.63;1.10;;;;;;;;;;5043092;28;20060;-80
2022/09/28 12:36:08;;;;;;;0.85;0.80;;;;;;;;;;5039978;28;20107;-78
2022/09/28 12:38:43;;;;;;;1.00;0.70;;;;;;;;;;5036877;28;20061;-78
2022/09/28 12:41:21;;;;;;;2.72;0.70;;;;;;;;;;5042821;28;20386;-79
2022/09/28 12:43:53;;;;;;;1.75;1.10;;;;;;;;;;5044802;28;20485;-80
2022/09/28 12:46:56;;;;;;;1.55;0.70;;;;;;;;;;5040265;28;20021;-81
2022/09/28 12:49:31;;;;;;;1.80;0.90;;;;;;;;;;5047570;28;20024;-79
2022/09/28 12:52:06;;;;;;;1.65;0.85;;;;;;;;;;5039183;28;20090;-79
2022/09/28 12:54:44;;;;;;;1.42;1.10;;;;;;;;;;5029856;28;20033;-79
2022/09/28 12:57:47;;;;;;;1.90;1.08;;;;;;;;;;5042137;28;20111;-80
2022/09/28 13:00:17;;;;;;;4.25;0.90;;;;;;;;;;5042436;28;20029;-78
2022/09/28 13:03:27;;;;;;;0.75;0.75;;;;;;;;;;5038879;28;20037;-80
2022/09/28 13:06:17;;;;;;;1.35;0.88;;;;;;;;;;5023020;28;20036;-78
2022/09/28 13:08:54;;;;;;;1.45;0.80;;;;;;;;;;5043328;28;20067;-78
2022/09/28 13:11:25;;;;;;;1.30;0.70;;;;;;;;;;5042477;28;20024;-77
2022/09/28 13:14:09;;;;;;;1.05;0.60;;;;;;;;;;5039702;28;20059;-78
2022/09/28 13:16:54;;;;;;;0.68;0.45;;;;;;;;;;5041159;28;20124;-78
2022/09/28 13:19:27;;;;;;;1.02;0.68;;;;;;;;;;5043556;28;20033;-78
2022/09/28 13:22:20;;;;;;;2.28;0.77;;;;;;;;;;5041689;28;20032;-78
2022/09/28 13:24:47;;;;;;;2.38;0.50;;;;;;;;;;5043276;28;20025;-79
2022/09/28 13:27:18;;;;;;;1.00;0.60;;;;;;;;;;5037974;28;20036;-78
2022/09/28 13:29:44;;;;;;;2.20;0.50;;;;;;;;;;5030357;28;20727;-77
2022/09/28 13:32:11;;;;;;;2.72;0.80;;;;;;;;;;5036134;28;20206;-79
2022/09/28 13:34:38;;;;;;;2.67;0.85;;;;;;;;;;5033221;28;20401;-79
2022/09/28 13:37:13;;;;;;;1.23;0.70;;;;;;;;;;5036464;28;20040;-79
2022/09/28 13:39:46;;;;;;;1.00;0.60;;;;;;;;;;5044771;28;20045;-80
2022/09/28 13:42:28;;;;;;;1.75;0.68;;;;;;;;;;5017783;28;20030;-79
2022/09/28 13:45:16;;;;;;;;;;;;;;;;;;5020523;28;20033;-79
2022/09/28 13:47:45;;;;;;;1.08;0.70;;;;;;;;;;5009075;28;19917;-80
2022/09/28 13:50:30;;;;;;;4.95;2.45;;;;;;;;;;5017458;28;20046;-78
2022/09/28 13:53:11;;;;;;;1.88;0.63;;;;;;;;;;5025990;28;20197;-79
2022/09/28 13:56:13;;;;;;;1.88;0.82;;;;;;;;;;5017476;28;20038;-78
2022/09/28 13:59:21;;;;;;;2.65;0.68;;;;;;;;;;5023340;28;20087;-79
2022/09/28 14:01:58;;;;;;;2.92;0.80;;;;;;;;;;5001016;28;20038;-80
2022/09/28 14:04:56;;;;;;;0.80;0.60;;;;;;;;;;5029464;28;20478;-79
2022/09/28 14:07:33;;;;;;;0.85;0.80;;;;;;;;;;5026450;28;20136;-78
2022/09/28 14:10:19;;;;;;;1.20;0.90;;;;;;;;;;5033271;28;20164;-78
2022/09/28 14:12:47;;;;;;;0.98;0.90;;;;;;;;;;5034323;28;20041;-79
2022/09/28 14:15:29;;;;;;;1.30;0.57;;;;;;;;;;5037526;28;20108;-79
2022/09/28 14:18:16;;;;;;;1.73;0.98;;;;;;;;;;5038332;28;20117;-78
2022/09/28 14:20:54;;;;;;;0.70;0.70;;;;;;;;;;5018317;28;20080;-78
2022/09/28 14:23:32;;;;;;;0.75;0.65;;;;;;;;;;5036405;28;20026;-78
2022/09/28 14:26:40;;;;;;;3.53;0.70;;;;;;;;;;5038000;28;20379;-80
2022/09/28 14:29:26;;;;;;;0.93;0.47;;;;;;;;;;5015387;28;20124;-78
2022/09/28 14:31:52;;;;;;;0.85;0.63;;;;;;;;;;5037839;28;20037;-80
2022/09/28 14:34:42;;;;;;;2.28;0.73;;;;;;;;;;5018537;28;20038;-79
2022/09/28 14:41:11;;;;;;;1.30;0.65;;;;;;;;;;5037975;28;20118;-80
2022/09/28 14:43:43;;;;;;;0.90;0.90;;;;;;;;;;5035167;28;20040;-79
2022/09/28 14:48:53;;;;;;;1.17;0.70;;;;;;;;;;5041136;28;20032;-79
2022/09/28 14:51:25;;;;;;;0.88;0.80;;;;;;;;;;5041925;28;20157;-79
2022/09/28 14:53:59;;;;;;;2.30;0.60;;;;;;;;;;5040459;28;20133;-78
2022/09/28 14:56:28;;;;;;;1.70;0.82;;;;;;;;;;5034710;28;20033;-79
2022/09/28 14:58:56;;;;;;;5.35;0.98;;;;;;;;;;5038294;28;20064;-79
2022/09/28 15:01:24;;;;;;;0.43;0.43;;;;;;;;;;5042027;28;20029;-79
2022/09/28 15:03:55;;;;;;;1.98;0.60;;;;;;;;;;5038959;28;20378;-80
2022/09/28 15:06:24;;;;;;;1.17;0.80;;;;;;;;;;5038396;28;20021;-81
2022/09/28 15:08:50;;;;;;;0.93;0.77;;;;;;;;;;5019546;28;20079;-78
2022/09/28 15:11:19;;;;;;;0.60;0.52;;;;;;;;;;5038589;28;20037;-78
2022/09/28 15:13:45;;;;;;;0.85;0.68;;;;;;;;;;5036916;28;20025;-77
2022/09/28 15:16:21;;;;;;;2.60;0.93;;;;;;;;;;5038916;28;20028;-79
2022/09/28 15:19:27;;;;;;;1.15;0.68;;;;;;;;;;5018396;28;20806;-79
2022/09/28 15:21:53;;;;;;;0.80;0.80;;;;;;;;;;5027516;28;20044;-78
2022/09/28 15:24:30;;;;;;;2.42;0.65;;;;;;;;;;5035627;28;20029;-79
2022/09/28 15:26:56;;;;;;;4.32;0.73;;;;;;;;;;5041642;28;20028;-80
2022/09/28 15:29:22;;;;;;;3.72;0.60;;;;;;;;;;5036339;28;20032;-77
2022/09/28 15:31:47;;;;;;;1.77;1.00;;;;;;;;;;5043856;28;20045;-79
2022/09/28 15:34:51;;;;;;;1.38;0.85;;;;;;;;;;5040435;28;20382;-80